Versailles, OH

12:08 PM EDT on August 20, 2014 (GMT -0400)
Darke County | Change Station
CLOSE
Current Station
Airport
Location: Versailles,
Elevation: 1007 ft
Nearby Weather Stations

Elev 1007 ft 40.20 °N, 84.53 °W | Updated 13 minutes ago

Mostly Cloudy
Mostly Cloudy
81 °F
Feels Like 84 °F
N
5
Wind Variable Wind from West

Today
High -- | Low -- °F
--% Chance of Precip.
Yesterday
High -- | Low -- °F
Precip. -- in
6:54 AM 8:28 PM
Waning Crescent, 21% visible
Pressure 29.94 in
Visibility 10.0 miles
Clouds Scattered Clouds 3100 ft
Mostly Cloudy 3800 ft
Mostly Cloudy 4400 ft
Heat Index 84 °F
Dew Point 70 °F
Humidity 70%
Rainfall 0.00 in
Snow Depth Not available.
UV 5 out of 12
Pollen 9.20 out of 12
Ozone Good
PM2.5 Good
Flu Activity Not available.
METAR KVES 201555Z AUTO 28004KT 10SM SCT031 BKN038 BKN044 27/21 A2994 RMK AO2

More Conditions Fewer Conditions

Pressure 29.94 in
Visibility 10.0 miles
Clouds Scattered Clouds 3100 ft
Mostly Cloudy 3800 ft
Mostly Cloudy 4400 ft
Heat Index 84 °F
Dew Point 70 °F
Humidity 70%
Rainfall 0.00 in
Snow Depth Not available.
UV 5 out of 12
Pollen 9.20 out of 12
Ozone Good
PM2.5 Good
Flu Activity Not available.
METAR KVES 201555Z AUTO 28004KT 10SM SCT031 BKN038 BKN044 27/21 A2994 RMK AO2

More Conditions Fewer Conditions

10-Day Weather Forecast

Almanac

Astronomy

Aug. 20, 2014 Rise Set
Actual Time 6:54 AM EDT 8:28 PM EDT
Civil Twilight 6:25 AM EDT 8:56 PM EDT
Nautical Twilight 5:50 AM EDT 9:31 PM EDT
Astronomical Twilight 5:13 AM EDT 10:07 PM EDT
Moon 2:33 AM EDT 5:12 PM EDT
Length of Visible Light 14h 31m
Length of Day
13h 33m
Tomorrow will be 2m 25s shorter.
Waning Crescent, 21% of the Moon is Illuminated
Today
Waning Crescent
Aug 25
New
Sep 2
First Quarter
Sep 8
Full
Sep 15
Last Quarter

Today's Extremes

State Highs State Lows

Community

WunderPhotos

Upload Photos

1,745,677 photos uploaded!

Nearby

Air Quality

  Air Quality AQ Index Pollutant
Yesterday Moderate
PM2.5
Yesterday Good
OZONE
Current Good
PM2.5
Current Good
OZONE
Wednesday Moderate
PM2.5
Wednesday Good
OZONE
Thursday Moderate
PM2.5
Thursday Good
OZONE
Friday Moderate
PM2.5
Friday Good
OZONE
Saturday Moderate
PM2.5
Saturday Good
OZONE

Snow Depth

Station Depth Elevation
No new snow has been reported.

Earthquake Activity

City Distance Mag. Time & Date
No recent earthquake activity has been reported nearby.
Minimum magnitude displayed is 2.5.

Coastal Water Temperatures

Place Temperature
No Stations Reporting

Nearby Weather Stations